createdAt,value
2023-04-11T00:00:14.324Z,6.70
2023-04-11T00:02:40.908Z,2.53
2023-04-11T00:05:08.122Z,4.50
2023-04-11T00:07:34.599Z,2.60
2023-04-11T00:10:01.663Z,4.28
2023-04-11T00:12:28.162Z,1.55
2023-04-11T00:14:55.378Z,3.78
2023-04-11T00:17:23.502Z,3.45
2023-04-11T00:19:53.105Z,3.42
2023-04-11T00:22:19.440Z,2.22
2023-04-11T00:24:45.839Z,2.25
2023-04-11T00:27:12.151Z,3.80
2023-04-11T00:29:38.465Z,2.90
2023-04-11T00:32:05.231Z,2.67
2023-04-11T00:34:31.553Z,2.70
2023-04-11T00:36:57.946Z,3.25
2023-04-11T00:39:26.248Z,3.53
2023-04-11T00:41:52.777Z,3.05
2023-04-11T00:44:19.072Z,2.97
2023-04-11T00:46:46.369Z,4.65
2023-04-11T00:49:13.277Z,2.63
2023-04-11T00:51:39.665Z,1.98
2023-04-11T00:54:10.108Z,1.17
2023-04-11T00:56:36.503Z,2.17
2023-04-11T00:59:03.288Z,2.13
2023-04-11T01:01:30.030Z,3.00
2023-04-11T01:03:57.110Z,3.22
2023-04-11T01:06:24.590Z,4.20
2023-04-11T01:08:51.070Z,2.05
2023-04-11T01:11:20.083Z,1.35
2023-04-11T01:13:46.758Z,1.90
2023-04-11T01:16:14.887Z,4.68
2023-04-11T01:18:41.409Z,4.60
2023-04-11T01:21:08.678Z,1.08
2023-04-11T01:23:35.369Z,3.67
2023-04-11T01:26:01.740Z,2.58
2023-04-11T01:28:28.065Z,1.52
2023-04-11T01:30:54.590Z,2.10
2023-04-11T01:33:21.120Z,1.40
2023-04-11T01:35:48.260Z,2.22
2023-04-11T01:38:14.859Z,3.85
2023-04-11T01:40:41.875Z,1.55
2023-04-11T01:43:09.779Z,2.35
2023-04-11T01:45:36.397Z,1.63
2023-04-11T01:48:07.333Z,2.63
2023-04-11T01:50:34.188Z,4.10
2023-04-11T01:53:00.530Z,4.65
2023-04-11T01:55:28.844Z,1.85
2023-04-11T01:57:55.306Z,1.98
2023-04-11T02:00:21.981Z,3.28
2023-04-11T02:02:48.399Z,1.55
2023-04-11T02:05:15.345Z,3.08
2023-04-11T02:07:41.643Z,3.00
2023-04-11T02:10:08.483Z,3.53
2023-04-11T02:12:34.791Z,3.55
2023-04-11T02:15:01.235Z,4.00
2023-04-11T02:17:30.941Z,4.18
2023-04-11T02:19:57.892Z,1.90
2023-04-11T02:22:24.759Z,2.50
2023-04-11T02:24:51.300Z,1.48
2023-04-11T02:27:17.661Z,0.68
2023-04-11T02:29:43.956Z,1.75
2023-04-11T02:32:10.625Z,4.10
2023-04-11T02:34:37.992Z,3.17
2023-04-11T02:37:04.339Z,5.50
2023-04-11T02:39:31.358Z,2.53
2023-04-11T02:41:57.800Z,5.95
2023-04-11T02:44:26.138Z,2.83
2023-04-11T02:46:52.610Z,1.92
2023-04-11T02:49:19.924Z,3.55
2023-04-11T02:51:47.493Z,2.67
2023-04-11T02:54:13.798Z,3.03
2023-04-11T02:56:40.179Z,5.47
2023-04-11T02:59:07.112Z,3.03
2023-04-11T03:01:34.221Z,4.45
2023-04-11T03:04:00.957Z,2.60
2023-04-11T03:06:37.728Z,2.50
2023-04-11T03:09:04.567Z,2.67
2023-04-11T03:11:32.865Z,5.78
2023-04-11T03:13:59.372Z,3.42
2023-04-11T03:16:28.025Z,5.13
2023-04-11T03:18:54.720Z,3.92
2023-04-11T03:21:21.285Z,4.00
2023-04-11T03:23:48.150Z,2.45
2023-04-11T03:26:15.837Z,3.95
2023-04-11T03:28:43.538Z,3.80
2023-04-11T03:31:12.051Z,1.45
2023-04-11T03:33:39.260Z,1.30
2023-04-11T03:36:06.451Z,2.72
2023-04-11T03:38:33.714Z,4.82
2023-04-11T03:41:00.141Z,2.85
2023-04-11T03:43:27.199Z,6.28
2023-04-11T03:45:53.847Z,4.18
2023-04-11T03:48:33.444Z,5.85
2023-04-11T03:51:04.776Z,5.32
2023-04-11T03:53:38.488Z,4.90
2023-04-11T03:56:18.953Z,5.30
2023-04-11T03:58:45.356Z,9.40
2023-04-11T04:01:12.280Z,4.70
2023-04-11T04:03:39.446Z,2.85
2023-04-11T04:06:09.583Z,6.38
2023-04-11T04:08:36.567Z,2.35
2023-04-11T04:11:03.120Z,6.88
2023-04-11T04:13:32.116Z,8.48
2023-04-11T04:16:10.568Z,7.03
2023-04-11T04:18:39.214Z,3.67
2023-04-11T04:21:07.371Z,7.13
2023-04-11T04:23:36.023Z,3.47
2023-04-11T04:26:24.729Z,5.68
2023-04-11T04:29:05.642Z,5.85
2023-04-11T04:31:50.473Z,10.15
2023-04-11T04:34:21.750Z,5.88
2023-04-11T04:36:49.624Z,5.28
2023-04-11T04:39:25.288Z,5.10
2023-04-11T04:41:58.219Z,8.90
2023-04-11T04:44:29.042Z,5.25
2023-04-11T04:46:58.949Z,6.53
2023-04-11T04:49:27.518Z,6.45
2023-04-11T04:51:53.822Z,6.50
2023-04-11T04:54:20.427Z,7.80
2023-04-11T04:56:48.125Z,6.35
2023-04-11T04:59:16.101Z,6.18
2023-04-11T05:01:47.090Z,6.70
2023-04-11T05:04:14.077Z,14.02
2023-04-11T05:06:48.874Z,10.55
2023-04-11T05:09:17.202Z,10.75
2023-04-11T05:11:44.405Z,7.05
2023-04-11T05:14:10.759Z,10.93
2023-04-11T05:16:40.705Z,8.85
2023-04-11T05:19:07.601Z,9.33
2023-04-11T05:21:38.473Z,7.18
2023-04-11T05:24:05.170Z,9.45
2023-04-11T05:26:35.499Z,5.25
2023-04-11T05:29:02.369Z,10.13
2023-04-11T05:31:28.901Z,7.50
2023-04-11T05:33:56.489Z,8.32
2023-04-11T05:36:24.242Z,7.90
2023-04-11T05:38:50.664Z,8.15
2023-04-11T05:41:17.076Z,4.30
2023-04-11T05:43:43.378Z,9.30
2023-04-11T05:46:09.836Z,10.18
2023-04-11T05:48:36.257Z,3.08
2023-04-11T05:51:02.594Z,7.57
2023-04-11T05:53:29.088Z,6.85
2023-04-11T05:55:55.577Z,9.32
2023-04-11T05:58:22.937Z,6.50
2023-04-11T06:00:49.558Z,6.07
2023-04-11T06:03:16.934Z,10.75
2023-04-11T06:05:43.535Z,7.03
2023-04-11T06:08:10.326Z,7.70
2023-04-11T06:10:36.717Z,11.65
2023-04-11T06:13:03.122Z,14.65
2023-04-11T06:15:29.514Z,8.27
2023-04-11T06:17:56.000Z,14.10
2023-04-11T06:20:23.658Z,14.43
2023-04-11T06:22:53.157Z,10.52
2023-04-11T06:25:21.007Z,17.95
2023-04-11T06:27:48.178Z,14.30
2023-04-11T06:30:15.099Z,9.60
2023-04-11T06:32:41.850Z,13.38
2023-04-11T06:35:08.870Z,16.02
2023-04-11T06:37:35.472Z,12.48
2023-04-11T06:40:02.103Z,10.70
2023-04-11T06:42:28.440Z,19.98
2023-04-11T06:44:54.725Z,11.02
2023-04-11T06:47:21.185Z,16.45
2023-04-11T06:49:47.539Z,9.40
2023-04-11T06:52:13.875Z,13.88
2023-04-11T06:54:40.660Z,15.38
2023-04-11T06:57:07.080Z,10.70
2023-04-11T06:59:34.688Z,14.00
2023-04-11T07:02:01.154Z,9.30
2023-04-11T07:04:27.689Z,19.55
2023-04-11T07:06:54.171Z,10.80
2023-04-11T07:09:20.580Z,7.97
2023-04-11T07:11:47.015Z,8.45
2023-04-11T07:14:13.367Z,17.15
2023-04-11T07:16:39.916Z,16.27
2023-04-11T07:19:06.386Z,27.50
2023-04-11T07:21:33.256Z,42.53
2023-04-11T07:24:00.918Z,32.80
2023-04-11T07:26:31.972Z,36.45
2023-04-11T07:28:59.432Z,40.97
2023-04-11T07:31:27.226Z,48.08
2023-04-11T07:33:53.894Z,34.78
2023-04-11T07:36:20.647Z,30.33
2023-04-11T07:38:46.990Z,37.08
2023-04-11T07:41:13.406Z,24.15
2023-04-11T07:43:40.527Z,52.25
2023-04-11T07:46:07.067Z,39.10
2023-04-11T07:48:33.457Z,26.77
2023-04-11T07:50:59.891Z,25.67
2023-04-11T07:53:26.812Z,18.63
2023-04-11T07:55:53.184Z,10.98
2023-04-11T07:58:19.678Z,16.67
2023-04-11T08:00:46.154Z,13.18
2023-04-11T08:03:13.661Z,18.08
2023-04-11T08:05:40.319Z,15.55
2023-04-11T08:08:07.010Z,16.42
2023-04-11T08:10:34.000Z,16.58
2023-04-11T08:13:00.873Z,16.88
2023-04-11T08:15:27.279Z,13.15
2023-04-11T08:17:56.943Z,11.20
2023-04-11T08:20:24.167Z,8.60
2023-04-11T08:22:50.665Z,15.20
2023-04-11T08:25:22.764Z,9.15
2023-04-11T08:27:50.772Z,15.90
2023-04-11T08:30:17.464Z,8.30
2023-04-11T08:32:44.057Z,12.88
2023-04-11T08:35:10.669Z,14.07
2023-04-11T08:37:36.993Z,10.57
2023-04-11T08:40:06.688Z,13.60
2023-04-11T08:42:33.787Z,6.22
2023-04-11T08:45:03.088Z,10.40
2023-04-11T08:47:29.738Z,6.38
2023-04-11T08:49:59.050Z,7.63
2023-04-11T08:52:25.545Z,10.77
2023-04-11T08:54:56.554Z,8.18
2023-04-11T08:57:28.254Z,7.88
2023-04-11T08:59:56.246Z,7.80
2023-04-11T09:02:23.123Z,8.35
2023-04-11T09:04:49.613Z,8.13
2023-04-11T09:07:19.287Z,13.30
2023-04-11T09:09:46.190Z,8.18
2023-04-11T09:12:13.279Z,8.32
2023-04-11T09:14:39.700Z,19.88
2023-04-11T09:17:13.657Z,10.20
2023-04-11T09:19:42.914Z,14.10
2023-04-11T09:22:09.437Z,16.48
2023-04-11T09:24:36.584Z,16.27
2023-04-11T09:27:12.002Z,15.52
2023-04-11T09:29:48.419Z,23.90
2023-04-11T09:32:34.841Z,13.93
2023-04-11T09:35:15.643Z,11.70
2023-04-11T09:37:47.979Z,9.90
2023-04-11T09:40:16.296Z,20.73
2023-04-11T09:42:43.432Z,7.38
2023-04-11T09:45:18.594Z,10.73
2023-04-11T09:47:47.234Z,11.18
2023-04-11T09:50:14.085Z,11.02
2023-04-11T09:52:43.030Z,10.30
2023-04-11T09:55:11.650Z,9.48
2023-04-11T09:57:41.239Z,13.27
2023-04-11T10:00:14.492Z,15.65
2023-04-11T10:02:41.799Z,11.07
2023-04-11T10:05:10.384Z,7.50
2023-04-11T10:07:45.732Z,25.90
2023-04-11T10:10:23.573Z,21.38
2023-04-11T10:12:51.027Z,22.30
2023-04-11T10:15:18.284Z,21.83
2023-04-11T10:18:08.989Z,29.30
2023-04-11T10:20:35.662Z,23.45
2023-04-11T10:23:02.143Z,27.75
2023-04-11T10:25:28.848Z,29.10
2023-04-11T10:28:03.947Z,14.18
2023-04-11T10:30:39.350Z,14.95
2023-04-11T10:33:13.407Z,16.52
2023-04-11T10:36:02.033Z,12.40
2023-04-11T10:38:43.719Z,17.02
2023-04-11T10:41:22.223Z,11.70
2023-04-11T10:43:49.446Z,13.32
2023-04-11T10:46:24.099Z,6.57
2023-04-11T10:48:56.830Z,8.88
2023-04-11T10:51:27.704Z,6.63
2023-04-11T10:53:59.274Z,10.77
2023-04-11T10:56:45.300Z,14.27
2023-04-11T10:59:36.291Z,12.32
2023-04-11T11:02:03.290Z,18.75
2023-04-11T11:04:40.178Z,12.75
2023-04-11T11:07:12.114Z,13.25
2023-04-11T11:09:38.653Z,8.85
2023-04-11T11:12:09.164Z,11.45
2023-04-11T11:14:36.480Z,9.50
2023-04-11T11:17:03.854Z,5.13
2023-04-11T11:19:31.383Z,7.18
2023-04-11T11:22:03.684Z,2.55
2023-04-11T11:24:30.824Z,7.93
2023-04-11T11:26:58.026Z,4.78
2023-04-11T11:29:36.748Z,5.28
2023-04-11T11:32:04.145Z,7.30
2023-04-11T11:34:33.621Z,5.40
2023-04-11T11:37:04.223Z,8.77
2023-04-11T11:39:31.656Z,4.45
2023-04-11T11:41:58.610Z,3.03
2023-04-11T11:44:26.596Z,7.13
2023-04-11T11:47:06.922Z,3.55
2023-04-11T11:49:49.468Z,5.13
2023-04-11T11:52:35.251Z,6.82
2023-04-11T11:55:03.539Z,5.43
2023-04-11T11:57:29.958Z,5.68
2023-04-11T11:59:57.433Z,6.55
2023-04-11T12:02:26.042Z,3.22
2023-04-11T12:04:57.985Z,5.00
2023-04-11T12:07:24.451Z,4.00
2023-04-11T12:09:58.761Z,4.10
2023-04-11T12:12:33.353Z,3.55
2023-04-11T12:15:00.121Z,6.03
2023-04-11T12:17:32.987Z,3.72
2023-04-11T12:20:00.922Z,6.05
2023-04-11T12:22:27.285Z,7.43
2023-04-11T12:25:13.360Z,5.38
2023-04-11T12:27:41.937Z,6.53
2023-04-11T12:30:09.902Z,5.82
2023-04-11T12:32:38.592Z,5.53
2023-04-11T12:35:06.658Z,6.28
2023-04-11T12:37:33.982Z,6.63
2023-04-11T12:40:00.828Z,5.43
2023-04-11T12:42:27.696Z,7.28
2023-04-11T12:44:54.486Z,5.25
2023-04-11T12:47:21.045Z,8.13
2023-04-11T12:49:47.520Z,11.60
2023-04-11T12:52:13.849Z,2.65
2023-04-11T12:54:40.232Z,3.55
2023-04-11T12:57:07.460Z,4.00
2023-04-11T12:59:33.778Z,3.83
2023-04-11T13:02:00.235Z,3.35
2023-04-11T13:04:26.702Z,4.55
2023-04-11T13:06:53.121Z,4.55
2023-04-11T13:09:19.427Z,4.88
2023-04-11T13:11:46.016Z,2.83
2023-04-11T13:14:12.310Z,5.85
2023-04-11T13:16:38.702Z,4.63
2023-04-11T13:19:05.316Z,8.77
2023-04-11T13:21:32.528Z,3.70
2023-04-11T13:23:58.894Z,5.90
2023-04-11T13:26:25.264Z,3.17
2023-04-11T13:28:51.808Z,4.10
2023-04-11T13:31:19.211Z,6.35
2023-04-11T13:33:47.816Z,3.65
2023-04-11T13:36:14.123Z,2.83
2023-04-11T13:38:40.445Z,5.20
2023-04-11T13:41:07.043Z,3.80
2023-04-11T13:43:33.317Z,8.05
2023-04-11T13:45:59.663Z,6.30
2023-04-11T13:48:26.055Z,7.00
2023-04-11T13:50:52.533Z,3.28
2023-04-11T13:53:18.827Z,7.13
2023-04-11T13:55:47.573Z,2.90
2023-04-11T13:58:14.366Z,6.47
2023-04-11T14:00:40.909Z,3.90
2023-04-11T14:03:07.389Z,6.57
2023-04-11T14:05:35.454Z,3.90
2023-04-11T14:08:02.103Z,5.35
2023-04-11T14:10:28.664Z,5.28
2023-04-11T14:12:55.074Z,5.38
2023-04-11T14:15:21.926Z,3.85
2023-04-11T14:17:48.302Z,5.85
2023-04-11T14:20:15.003Z,4.72
2023-04-11T14:22:42.552Z,3.38
2023-04-11T14:25:13.300Z,5.07
2023-04-11T14:27:41.194Z,3.17
2023-04-11T14:30:12.535Z,3.15
2023-04-11T14:32:40.450Z,2.95
2023-04-11T14:35:09.205Z,8.93
2023-04-11T14:37:36.509Z,5.30
2023-04-11T14:40:07.825Z,4.72
2023-04-11T14:42:34.130Z,4.38
2023-04-11T14:45:00.421Z,8.68
2023-04-11T14:47:26.792Z,6.72
2023-04-11T14:49:53.219Z,5.25
2023-04-11T14:52:19.513Z,2.33
2023-04-11T14:54:45.882Z,4.25
2023-04-11T14:57:12.362Z,12.65
2023-04-11T14:59:38.752Z,6.18
2023-04-11T15:02:05.993Z,10.15
2023-04-11T15:04:32.483Z,9.93
2023-04-11T15:06:59.191Z,5.75
2023-04-11T15:09:25.633Z,2.78
2023-04-11T15:11:52.349Z,5.47
2023-04-11T15:14:18.790Z,3.30
2023-04-11T15:16:45.204Z,8.32
2023-04-11T15:19:11.500Z,3.83
2023-04-11T15:21:38.305Z,2.17
2023-04-11T15:24:07.173Z,5.63
2023-04-11T15:26:34.031Z,3.67
2023-04-11T15:29:00.628Z,6.15
2023-04-11T15:31:27.227Z,3.20
2023-04-11T15:33:57.158Z,3.08
2023-04-11T15:36:24.000Z,3.40
2023-04-11T15:38:50.346Z,2.95
2023-04-11T15:41:16.642Z,6.53
2023-04-11T15:43:42.933Z,3.90
2023-04-11T15:46:10.117Z,3.80
2023-04-11T15:48:36.496Z,6.10
2023-04-11T15:51:10.362Z,2.92
2023-04-11T15:53:36.763Z,4.90
2023-04-11T15:56:09.520Z,8.68
2023-04-11T15:58:35.802Z,10.52
2023-04-11T16:01:02.187Z,7.05
2023-04-11T16:03:32.597Z,23.35
2023-04-11T16:05:59.944Z,17.15
2023-04-11T16:08:27.350Z,25.77
2023-04-11T16:10:54.534Z,20.08
2023-04-11T16:13:20.940Z,15.23
2023-04-11T16:15:47.230Z,8.63
2023-04-11T16:18:13.618Z,8.85
2023-04-11T16:20:40.068Z,12.88
2023-04-11T16:23:06.353Z,16.98
2023-04-11T16:25:32.727Z,16.50
2023-04-11T16:27:59.047Z,6.07
2023-04-11T16:30:27.742Z,13.10
2023-04-11T16:32:54.293Z,15.75
2023-04-11T16:35:20.960Z,17.65
2023-04-11T16:37:47.265Z,22.30
2023-04-11T16:40:13.603Z,25.60
2023-04-11T16:42:40.235Z,27.00
2023-04-11T16:45:08.301Z,22.45
2023-04-11T16:47:34.584Z,23.88
2023-04-11T16:50:01.055Z,16.65
2023-04-11T16:52:28.134Z,23.52
2023-04-11T16:54:54.535Z,25.52
2023-04-11T16:57:20.892Z,21.05
2023-04-11T16:59:47.250Z,14.40
2023-04-11T17:02:13.879Z,14.35
2023-04-11T17:04:40.371Z,7.90
2023-04-11T17:07:06.920Z,9.52
2023-04-11T17:09:33.333Z,13.38
2023-04-11T17:12:00.181Z,13.90
2023-04-11T17:14:27.139Z,7.72
2023-04-11T17:16:53.531Z,11.13
2023-04-11T17:19:19.875Z,12.15
2023-04-11T17:21:46.378Z,14.55
2023-04-11T17:24:12.703Z,12.13
2023-04-11T17:26:38.998Z,11.23
2023-04-11T17:29:06.421Z,15.15
2023-04-11T17:31:32.753Z,16.30
2023-04-11T17:33:59.463Z,18.92
2023-04-11T17:36:26.017Z,28.77
2023-04-11T17:38:54.571Z,56.92
2023-04-11T17:41:21.367Z,32.33
2023-04-11T17:43:47.778Z,38.17
2023-04-11T17:46:14.290Z,46.53
2023-04-11T17:48:40.653Z,91.90
2023-04-11T17:51:07.284Z,70.20
2023-04-11T17:53:33.875Z,51.55
2023-04-11T17:56:05.673Z,51.05
2023-04-11T17:58:32.447Z,38.47
2023-04-11T18:00:58.753Z,40.35
2023-04-11T18:03:25.910Z,54.25
2023-04-11T18:05:53.892Z,52.70
2023-04-11T18:08:22.594Z,40.35
2023-04-11T18:10:52.955Z,110.25
2023-04-11T18:13:19.246Z,44.75
2023-04-11T18:15:45.594Z,31.85
2023-04-11T18:18:11.992Z,26.67
2023-04-11T18:20:38.310Z,11.00
2023-04-11T18:23:04.637Z,20.08
2023-04-11T18:25:31.163Z,27.58
2023-04-11T18:27:57.448Z,20.52
2023-04-11T18:30:23.882Z,26.88
2023-04-11T18:32:53.538Z,15.73
2023-04-11T18:35:20.666Z,26.73
2023-04-11T18:37:47.130Z,22.73
2023-04-11T18:40:14.375Z,15.93
2023-04-11T18:42:43.237Z,14.20
2023-04-11T18:45:14.118Z,13.05
2023-04-11T18:50:10.444Z,4.97
2023-04-11T18:52:36.862Z,6.38
2023-04-11T18:55:03.551Z,6.90
2023-04-11T18:57:33.852Z,4.32
2023-04-11T19:00:12.895Z,9.35
2023-04-11T19:02:41.433Z,4.65
2023-04-11T19:05:13.368Z,8.32
2023-04-11T19:07:41.605Z,11.18
2023-04-11T19:10:09.416Z,9.38
2023-04-11T19:12:35.865Z,5.70
2023-04-11T19:15:02.465Z,9.98
2023-04-11T19:17:28.903Z,6.95
2023-04-11T19:19:55.413Z,4.80
2023-04-11T19:22:21.720Z,8.40
2023-04-11T19:24:49.674Z,11.18
2023-04-11T19:27:18.266Z,9.90
2023-04-11T19:29:47.667Z,7.97
2023-04-11T19:32:17.487Z,5.85
2023-04-11T19:34:43.949Z,6.13
2023-04-11T19:37:10.301Z,7.65
2023-04-11T19:39:38.932Z,5.35
2023-04-11T19:42:06.896Z,5.40
2023-04-11T19:44:33.272Z,4.05
2023-04-11T19:46:59.591Z,5.82
2023-04-11T19:49:25.938Z,5.75
2023-04-11T19:51:52.403Z,8.20
2023-04-11T19:54:18.813Z,10.93
2023-04-11T19:56:46.377Z,12.48
2023-04-11T19:59:12.684Z,7.60
2023-04-11T20:01:39.061Z,7.57
2023-04-11T20:04:06.189Z,3.13
2023-04-11T20:06:34.766Z,3.75
2023-04-11T20:09:01.596Z,8.77
2023-04-11T20:11:29.240Z,9.77
2023-04-11T20:13:55.912Z,5.10
2023-04-11T20:16:24.711Z,6.32
2023-04-11T20:18:52.264Z,8.68
2023-04-11T20:21:18.627Z,7.93
2023-04-11T20:23:44.899Z,12.45
2023-04-11T20:26:11.270Z,9.55
2023-04-11T20:28:37.840Z,4.22
2023-04-11T20:31:04.673Z,11.45
2023-04-11T20:33:31.407Z,23.20
2023-04-11T20:35:57.899Z,26.83
2023-04-11T20:38:24.228Z,16.10
2023-04-11T20:40:50.568Z,16.20
2023-04-11T20:43:17.543Z,11.07
2023-04-11T20:45:45.593Z,9.77
2023-04-11T20:48:13.551Z,13.55
2023-04-11T20:50:41.815Z,12.20
2023-04-11T20:53:08.468Z,11.95
2023-04-11T20:55:34.913Z,13.10
2023-04-11T20:58:01.343Z,12.45
2023-04-11T21:00:27.696Z,14.30
2023-04-11T21:02:54.200Z,12.70
2023-04-11T21:05:24.694Z,11.15
2023-04-11T21:07:54.081Z,14.90
2023-04-11T21:10:20.841Z,10.75
2023-04-11T21:12:56.398Z,18.67
2023-04-11T21:15:22.806Z,9.10
2023-04-11T21:17:49.985Z,11.23
2023-04-11T21:20:19.786Z,19.80
2023-04-11T21:22:52.927Z,7.78
2023-04-11T21:25:19.695Z,14.75
2023-04-11T21:27:46.597Z,13.90
2023-04-11T21:30:14.183Z,9.43
2023-04-11T21:32:40.917Z,18.52
2023-04-11T21:35:09.487Z,7.90
2023-04-11T21:37:36.202Z,10.88
2023-04-11T21:40:03.448Z,23.70
2023-04-11T21:42:29.752Z,12.50
2023-04-11T21:44:56.117Z,16.25
2023-04-11T21:47:22.548Z,19.92
2023-04-11T21:49:49.221Z,61.38
2023-04-11T21:52:15.660Z,23.52
2023-04-11T21:54:46.850Z,30.60
2023-04-11T21:59:39.611Z,22.25
2023-04-11T22:02:06.642Z,30.17
2023-04-11T22:04:47.295Z,30.77
2023-04-11T22:07:18.207Z,23.98
2023-04-11T22:09:46.901Z,30.17
2023-04-11T22:12:17.536Z,43.60
2023-04-11T22:14:43.861Z,37.50
2023-04-11T22:17:10.260Z,43.83
2023-04-11T22:19:36.567Z,24.42
2023-04-11T22:22:03.170Z,21.02
2023-04-11T22:24:32.571Z,12.38
2023-04-11T22:26:58.852Z,11.15
2023-04-11T22:29:30.177Z,10.50
2023-04-11T22:32:00.864Z,7.90
2023-04-11T22:34:28.060Z,11.48
2023-04-11T22:36:54.418Z,5.45
2023-04-11T22:39:21.855Z,4.78
2023-04-11T22:41:50.498Z,8.02
2023-04-11T22:44:17.766Z,6.32
2023-04-11T22:47:05.989Z,7.50
2023-04-11T22:49:40.011Z,8.50
2023-04-11T22:52:07.228Z,9.00
2023-04-11T22:54:34.843Z,10.32
2023-04-11T22:57:01.504Z,12.13
2023-04-11T22:59:28.198Z,6.25
2023-04-11T23:01:54.911Z,6.97
2023-04-11T23:04:22.024Z,7.28
2023-04-11T23:06:51.398Z,7.68
2023-04-11T23:09:18.092Z,4.05
2023-04-11T23:11:45.367Z,5.45
2023-04-11T23:14:12.081Z,8.13
2023-04-11T23:16:38.390Z,8.70
2023-04-11T23:19:04.835Z,6.28
2023-04-11T23:21:31.120Z,4.18
2023-04-11T23:23:58.024Z,8.48
2023-04-11T23:26:24.679Z,10.95
2023-04-11T23:28:51.018Z,9.32
2023-04-11T23:31:20.278Z,6.72
2023-04-11T23:33:46.641Z,11.13
2023-04-11T23:36:13.533Z,5.60
2023-04-11T23:38:39.985Z,14.10
2023-04-11T23:41:06.677Z,5.00
2023-04-11T23:43:33.088Z,11.88
2023-04-11T23:45:59.506Z,9.73
2023-04-11T23:48:26.180Z,7.85
2023-04-11T23:50:52.731Z,8.10
2023-04-11T23:53:19.049Z,6.07
2023-04-11T23:55:45.395Z,10.25
2023-04-11T23:58:11.688Z,9.07
